createdAt,value
2023-03-01T00:00:11.524Z,1014.07
2023-03-01T00:00:52.054Z,1014.09
2023-03-01T00:01:32.613Z,1014.12
2023-03-01T00:02:13.206Z,1014.08
2023-03-01T00:02:53.652Z,1014.07
2023-03-01T00:03:34.235Z,1014.1
2023-03-01T00:04:14.691Z,1014.11
2023-03-01T00:04:55.219Z,1014.02
2023-03-01T00:05:35.725Z,1014.06
2023-03-01T00:06:16.282Z,1014.06
2023-03-01T00:06:56.810Z,1014.04
2023-03-01T00:08:54.722Z,1014.05
2023-03-01T00:09:35.246Z,1014.02
2023-03-01T00:10:15.778Z,1014.05
2023-03-01T00:10:56.292Z,1014.03
2023-03-01T00:11:37.748Z,1013.99
2023-03-01T00:12:18.268Z,1014.02
2023-03-01T00:12:58.809Z,1014.01
2023-03-01T00:13:39.327Z,1014.01
2023-03-01T00:14:19.844Z,1014
2023-03-01T00:15:00.363Z,1014.04
2023-03-01T00:15:40.920Z,1014.01
2023-03-01T00:16:21.513Z,1014
2023-03-01T00:17:01.988Z,1014.06
2023-03-01T00:17:42.616Z,1014.02
2023-03-01T00:18:23.148Z,1014.03
2023-03-01T00:19:03.677Z,1014
2023-03-01T00:19:44.214Z,1013.99
2023-03-01T00:20:25.264Z,1013.97
2023-03-01T00:21:05.779Z,1014.02
2023-03-01T00:21:46.398Z,1013.95
2023-03-01T00:22:26.905Z,1013.96
2023-03-01T00:23:07.479Z,1013.97
2023-03-01T00:23:48.033Z,1013.96
2023-03-01T00:24:28.591Z,1013.96
2023-03-01T00:28:22.263Z,1014
2023-03-01T00:29:02.779Z,1014.03
2023-03-01T00:29:43.301Z,1014.01
2023-03-01T00:30:23.815Z,1014.05
2023-03-01T00:31:04.365Z,1014.03
2023-03-01T00:31:44.824Z,1014.01
2023-03-01T00:32:25.458Z,1014.01
2023-03-01T00:34:39.246Z,1013.99
2023-03-01T00:35:20.514Z,1014.01
2023-03-01T00:36:01.028Z,1013.99
2023-03-01T00:36:41.574Z,1013.99
2023-03-01T00:37:22.118Z,1013.99
2023-03-01T00:38:02.588Z,1013.97
2023-03-01T00:38:43.136Z,1013.97
2023-03-01T00:39:23.675Z,1013.95
2023-03-01T00:40:04.190Z,1013.96
2023-03-01T00:40:44.705Z,1013.95
2023-03-01T00:41:25.229Z,1013.93
2023-03-01T00:42:06.439Z,1013.96
2023-03-01T00:42:47.559Z,1013.97
2023-03-01T00:43:28.095Z,1013.89
2023-03-01T00:44:08.629Z,1013.93
2023-03-01T00:44:49.156Z,1013.91
2023-03-01T00:45:29.689Z,1013.93
2023-03-01T00:46:10.310Z,1013.89
2023-03-01T00:46:50.755Z,1013.89
2023-03-01T00:47:31.278Z,1013.92
2023-03-01T00:48:11.792Z,1013.89
2023-03-01T00:48:52.311Z,1013.89
2023-03-01T00:49:32.847Z,1013.94
2023-03-01T00:50:13.364Z,1013.9
2023-03-01T00:50:53.875Z,1013.92
2023-03-01T00:51:34.427Z,1013.93
2023-03-01T00:52:14.953Z,1013.96
2023-03-01T00:54:13.104Z,1013.94
2023-03-01T00:54:53.613Z,1013.93
2023-03-01T00:55:34.134Z,1013.96
2023-03-01T00:56:14.681Z,1013.98
2023-03-01T00:56:55.199Z,1013.97
2023-03-01T00:57:35.717Z,1013.93
2023-03-01T00:58:16.230Z,1013.96
2023-03-01T00:58:56.761Z,1013.93
2023-03-01T00:59:37.244Z,1013.95
2023-03-01T01:00:17.993Z,1013.95
2023-03-01T01:00:58.524Z,1013.93
2023-03-01T01:02:56.490Z,1013.98
2023-03-01T01:03:36.954Z,1013.96
2023-03-01T01:04:17.504Z,1013.96
2023-03-01T01:04:58.050Z,1013.97
2023-03-01T01:05:39.221Z,1013.98
2023-03-01T01:07:52.245Z,1013.94
2023-03-01T01:08:32.774Z,1013.99
2023-03-01T01:09:13.329Z,1013.95
2023-03-01T01:09:53.899Z,1013.93
2023-03-01T01:10:34.436Z,1013.96
2023-03-01T01:11:14.977Z,1013.92
2023-03-01T01:11:55.486Z,1013.91
2023-03-01T01:12:36.876Z,1013.94
2023-03-01T01:13:17.392Z,1013.91
2023-03-01T01:13:57.960Z,1013.93
2023-03-01T01:14:38.496Z,1013.93
2023-03-01T01:15:19.009Z,1013.91
2023-03-01T01:15:59.575Z,1013.9
2023-03-01T01:17:57.679Z,1013.9
2023-03-01T01:18:38.216Z,1013.9
2023-03-01T01:19:18.799Z,1013.87
2023-03-01T01:19:59.317Z,1013.87
2023-03-01T01:20:39.935Z,1013.84
2023-03-01T01:21:20.479Z,1013.88
2023-03-01T01:22:01.035Z,1013.88
2023-03-01T01:22:41.592Z,1013.87
2023-03-01T01:23:22.111Z,1013.87
2023-03-01T01:24:02.622Z,1013.9
2023-03-01T01:24:44.106Z,1013.87
2023-03-01T01:25:24.675Z,1013.85
2023-03-01T01:26:05.200Z,1013.85
2023-03-01T01:26:45.713Z,1013.88
2023-03-01T01:27:26.247Z,1013.86
2023-03-01T01:29:24.348Z,1013.8
2023-03-01T01:30:04.886Z,1013.8
2023-03-01T01:30:45.418Z,1013.76
2023-03-01T01:31:26.001Z,1013.77
2023-03-01T01:32:06.525Z,1013.78
2023-03-01T01:32:46.988Z,1013.73
2023-03-01T01:33:27.538Z,1013.74
2023-03-01T01:34:08.096Z,1013.7
2023-03-01T01:34:48.647Z,1013.72
2023-03-01T01:35:29.229Z,1013.69
2023-03-01T01:36:09.689Z,1013.69
2023-03-01T01:36:50.192Z,1013.7
2023-03-01T01:37:30.737Z,1013.68
2023-03-01T01:38:11.254Z,1013.65
2023-03-01T01:38:51.750Z,1013.66
2023-03-01T01:39:32.276Z,1013.64
2023-03-01T01:40:13.450Z,1013.62
2023-03-01T01:40:53.978Z,1013.66
2023-03-01T01:41:34.490Z,1013.67
2023-03-01T01:42:15.013Z,1013.62
2023-03-01T01:42:55.584Z,1013.65
2023-03-01T01:43:36.113Z,1013.63
2023-03-01T01:44:16.641Z,1013.65
2023-03-01T01:44:58.092Z,1013.66
2023-03-01T01:45:38.594Z,1013.63
2023-03-01T01:46:20.114Z,1013.6
2023-03-01T01:47:00.599Z,1013.63
2023-03-01T01:47:41.151Z,1013.58
2023-03-01T01:48:21.685Z,1013.62
2023-03-01T01:49:02.196Z,1013.58
2023-03-01T01:49:42.711Z,1013.58
2023-03-01T01:50:23.249Z,1013.58
2023-03-01T01:51:03.766Z,1013.59
2023-03-01T01:51:44.280Z,1013.57
2023-03-01T01:52:24.803Z,1013.57
2023-03-01T01:53:05.316Z,1013.56
2023-03-01T01:55:18.416Z,1013.54
2023-03-01T01:55:58.956Z,1013.53
2023-03-01T01:56:39.456Z,1013.52
2023-03-01T01:57:20.703Z,1013.5
2023-03-01T01:58:01.200Z,1013.52
2023-03-01T01:58:41.723Z,1013.52
2023-03-01T01:59:22.233Z,1013.51
2023-03-01T02:00:02.753Z,1013.52
2023-03-01T02:00:43.272Z,1013.51
2023-03-01T02:01:24.633Z,1013.51
2023-03-01T02:02:05.140Z,1013.51
2023-03-01T02:02:45.843Z,1013.49
2023-03-01T02:03:26.292Z,1013.48
2023-03-01T02:04:06.689Z,1013.44
2023-03-01T02:04:47.214Z,1013.48
2023-03-01T02:05:28.340Z,1013.44
2023-03-01T02:06:09.438Z,1013.44
2023-03-01T02:06:49.975Z,1013.39
2023-03-01T02:09:04.474Z,1013.38
2023-03-01T02:09:45.013Z,1013.33
2023-03-01T02:10:25.546Z,1013.37
2023-03-01T02:11:06.135Z,1013.33
2023-03-01T02:11:46.639Z,1013.33
2023-03-01T02:12:27.208Z,1013.29
2023-03-01T02:14:40.246Z,1013.32
2023-03-01T02:15:20.798Z,1013.29
2023-03-01T02:16:01.412Z,1013.27
2023-03-01T02:16:41.828Z,1013.27
2023-03-01T02:19:25.397Z,1013.26
2023-03-01T02:20:11.303Z,1013.3
2023-03-01T02:20:56.185Z,1013.29
2023-03-01T02:21:40.526Z,1013.23
2023-03-01T02:22:23.069Z,1013.25
2023-03-01T02:23:10.841Z,1013.24
2023-03-01T02:23:57.854Z,1013.2
2023-03-01T02:24:43.657Z,1013.19
2023-03-01T02:25:25.926Z,1013.22
2023-03-01T02:26:10.928Z,1013.17
2023-03-01T02:26:58.691Z,1013.14
2023-03-01T02:27:43.889Z,1013.17
2023-03-01T02:28:25.922Z,1013.09
2023-03-01T02:29:09.906Z,1013.14
2023-03-01T02:29:50.403Z,1013.13
2023-03-01T02:30:34.333Z,1013.11
2023-03-01T02:31:20.322Z,1013.08
2023-03-01T02:32:04.555Z,1013.07
2023-03-01T02:32:45.623Z,1013.03
2023-03-01T02:33:27.096Z,1013.08
2023-03-01T02:35:41.651Z,1013.03
2023-03-01T02:36:22.123Z,1013.06
2023-03-01T02:37:02.632Z,1013.02
2023-03-01T02:37:44.100Z,1012.98
2023-03-01T02:38:24.620Z,1012.96
2023-03-01T02:40:44.228Z,1012.92
2023-03-01T02:41:26.393Z,1012.9
2023-03-01T02:42:08.929Z,1012.93
2023-03-01T02:42:50.189Z,1012.89
2023-03-01T02:43:33.095Z,1012.93
2023-03-01T02:44:17.131Z,1012.9
2023-03-01T02:44:57.728Z,1012.87
2023-03-01T02:47:29.488Z,1012.91
2023-03-01T02:48:10.006Z,1012.89
2023-03-01T02:48:51.496Z,1012.91
2023-03-01T02:49:32.004Z,1012.86
2023-03-01T02:50:12.520Z,1012.89
2023-03-01T02:53:28.817Z,1012.89
2023-03-01T02:54:09.501Z,1012.89
2023-03-01T02:54:49.883Z,1012.91
2023-03-01T02:55:30.402Z,1012.83
2023-03-01T02:56:10.914Z,1012.88
2023-03-01T02:56:51.441Z,1012.9
2023-03-01T02:57:31.949Z,1012.91
2023-03-01T02:58:12.461Z,1012.87
2023-03-01T02:58:52.998Z,1012.83
2023-03-01T02:59:33.519Z,1012.85
2023-03-01T03:00:14.054Z,1012.87
2023-03-01T03:00:54.588Z,1012.87
2023-03-01T03:01:35.065Z,1012.86
2023-03-01T03:02:15.580Z,1012.84
2023-03-01T03:02:56.101Z,1012.86
2023-03-01T03:03:36.634Z,1012.87
2023-03-01T03:04:17.124Z,1012.87
2023-03-01T03:04:57.653Z,1012.86
2023-03-01T03:05:38.182Z,1012.87
2023-03-01T03:06:18.695Z,1012.81
2023-03-01T03:06:59.212Z,1012.83
2023-03-01T03:07:39.753Z,1012.84
2023-03-01T03:08:20.262Z,1012.82
2023-03-01T03:09:00.801Z,1012.83
2023-03-01T03:09:41.320Z,1012.83
2023-03-01T03:10:21.836Z,1012.85
2023-03-01T03:11:02.351Z,1012.84
2023-03-01T03:11:42.869Z,1012.8
2023-03-01T03:12:23.427Z,1012.79
2023-03-01T03:13:03.925Z,1012.81
2023-03-01T03:13:44.463Z,1012.8
2023-03-01T03:14:24.969Z,1012.8
2023-03-01T03:15:05.504Z,1012.82
2023-03-01T03:15:46.011Z,1012.76
2023-03-01T03:16:26.570Z,1012.75
2023-03-01T03:17:07.061Z,1012.75
2023-03-01T03:17:47.557Z,1012.79
2023-03-01T03:18:28.075Z,1012.75
2023-03-01T03:19:08.598Z,1012.8
2023-03-01T03:19:49.107Z,1012.74
2023-03-01T03:20:29.652Z,1012.74
2023-03-01T03:21:10.169Z,1012.72
2023-03-01T03:21:50.697Z,1012.75
2023-03-01T03:22:31.204Z,1012.73
2023-03-01T03:23:11.726Z,1012.72
2023-03-01T03:23:52.253Z,1012.75
2023-03-01T03:24:32.788Z,1012.67
2023-03-01T03:25:14.295Z,1012.72
2023-03-01T03:25:54.810Z,1012.71
2023-03-01T03:26:35.331Z,1012.72
2023-03-01T03:27:15.839Z,1012.73
2023-03-01T03:27:56.366Z,1012.71
2023-03-01T03:28:36.879Z,1012.75
2023-03-01T03:29:17.400Z,1012.67
2023-03-01T03:29:57.931Z,1012.68
2023-03-01T03:30:38.458Z,1012.68
2023-03-01T03:31:19.004Z,1012.66
2023-03-01T03:31:59.538Z,1012.61
2023-03-01T03:32:40.053Z,1012.61
2023-03-01T03:33:20.597Z,1012.59
2023-03-01T03:34:01.109Z,1012.58
2023-03-01T03:34:41.625Z,1012.55
2023-03-01T03:35:22.141Z,1012.56
2023-03-01T03:36:02.681Z,1012.58
2023-03-01T03:36:43.174Z,1012.56
2023-03-01T03:37:23.703Z,1012.6
2023-03-01T03:38:04.213Z,1012.54
2023-03-01T03:38:45.480Z,1012.53
2023-03-01T03:39:25.991Z,1012.52
2023-03-01T03:40:06.493Z,1012.56
2023-03-01T03:40:47.028Z,1012.55
2023-03-01T03:41:27.554Z,1012.54
2023-03-01T03:42:08.149Z,1012.53
2023-03-01T03:42:48.685Z,1012.53
2023-03-01T03:43:29.220Z,1012.57
2023-03-01T03:44:09.730Z,1012.54
2023-03-01T03:44:50.251Z,1012.57
2023-03-01T03:45:30.801Z,1012.52
2023-03-01T03:46:11.393Z,1012.56
2023-03-01T03:46:51.799Z,1012.5
2023-03-01T03:47:32.375Z,1012.55
2023-03-01T03:50:11.239Z,1012.47
2023-03-01T03:50:54.099Z,1012.46
2023-03-01T03:51:38.290Z,1012.46
2023-03-01T03:52:20.591Z,1012.43
2023-03-01T03:53:10.735Z,1012.45
2023-03-01T03:54:00.744Z,1012.44
2023-03-01T03:54:45.839Z,1012.43
2023-03-01T03:55:30.792Z,1012.44
2023-03-01T03:56:17.029Z,1012.44
2023-03-01T03:56:59.030Z,1012.42
2023-03-01T03:59:33.042Z,1012.42
2023-03-01T04:00:17.049Z,1012.38
2023-03-01T04:00:57.540Z,1012.41
2023-03-01T04:01:42.667Z,1012.38
2023-03-01T04:03:56.834Z,1012.39
2023-03-01T04:04:37.435Z,1012.37
2023-03-01T04:05:17.962Z,1012.38
2023-03-01T04:05:58.507Z,1012.35
2023-03-01T04:06:39.039Z,1012.42
2023-03-01T04:07:19.580Z,1012.38
2023-03-01T04:08:00.094Z,1012.35
2023-03-01T04:08:40.608Z,1012.35
2023-03-01T04:10:53.642Z,1012.38
2023-03-01T04:11:34.140Z,1012.3
2023-03-01T04:12:14.662Z,1012.32
2023-03-01T04:12:55.195Z,1012.38
2023-03-01T04:13:35.715Z,1012.31
2023-03-01T04:14:16.755Z,1012.31
2023-03-01T04:14:57.311Z,1012.34
2023-03-01T04:15:38.561Z,1012.35
2023-03-01T04:16:19.150Z,1012.38
2023-03-01T04:18:17.006Z,1012.36
2023-03-01T04:18:57.529Z,1012.33
2023-03-01T04:19:38.058Z,1012.32
2023-03-01T04:20:18.561Z,1012.31
2023-03-01T04:20:59.079Z,1012.32
2023-03-01T04:21:40.530Z,1012.32
2023-03-01T04:23:33.576Z,1012.31
2023-03-01T04:24:14.110Z,1012.3
2023-03-01T04:24:54.625Z,1012.28
2023-03-01T04:25:35.155Z,1012.3
2023-03-01T04:26:15.675Z,1012.26
2023-03-01T04:26:56.188Z,1012.25
2023-03-01T04:27:36.726Z,1012.21
2023-03-01T04:28:17.277Z,1012.2
2023-03-01T04:28:57.776Z,1012.2
2023-03-01T04:29:38.246Z,1012.23
2023-03-01T04:30:18.803Z,1012.2
2023-03-01T04:30:59.290Z,1012.21
2023-03-01T04:31:39.873Z,1012.19
2023-03-01T04:32:20.430Z,1012.25
2023-03-01T04:33:00.849Z,1012.23
2023-03-01T04:33:41.394Z,1012.19
2023-03-01T04:34:21.905Z,1012.23
2023-03-01T04:35:03.148Z,1012.2
2023-03-01T04:35:43.694Z,1012.21
2023-03-01T04:36:24.260Z,1012.19
2023-03-01T04:37:04.697Z,1012.2
2023-03-01T04:37:45.207Z,1012.24
2023-03-01T04:38:25.722Z,1012.26
2023-03-01T04:39:06.242Z,1012.19
2023-03-01T04:39:46.776Z,1012.19
2023-03-01T04:41:59.807Z,1012.17
2023-03-01T04:42:40.334Z,1012.19
2023-03-01T04:43:20.841Z,1012.2
2023-03-01T04:44:02.207Z,1012.17
2023-03-01T04:46:15.684Z,1012.16
2023-03-01T04:46:55.755Z,1012.18
2023-03-01T04:47:36.837Z,1012.16
2023-03-01T04:48:21.030Z,1012.16
2023-03-01T04:50:35.563Z,1012.23
2023-03-01T04:51:16.112Z,1012.17
2023-03-01T04:51:57.816Z,1012.2
2023-03-01T04:52:38.347Z,1012.21
2023-03-01T04:54:56.351Z,1012.24
2023-03-01T04:55:39.184Z,1012.23
2023-03-01T04:56:20.664Z,1012.25
2023-03-01T04:57:10.729Z,1012.2
2023-03-01T04:57:51.942Z,1012.24
2023-03-01T04:58:32.544Z,1012.24
2023-03-01T04:59:12.993Z,1012.24
2023-03-01T04:59:59.712Z,1012.22
2023-03-01T05:00:41.784Z,1012.28
2023-03-01T05:01:29.220Z,1012.26
2023-03-01T05:02:10.733Z,1012.3
2023-03-01T05:02:53.445Z,1012.31
2023-03-01T05:03:43.520Z,1012.34
2023-03-01T05:04:26.259Z,1012.26
2023-03-01T05:05:08.531Z,1012.31
2023-03-01T05:05:56.324Z,1012.34
2023-03-01T05:06:36.809Z,1012.32
2023-03-01T05:07:22.929Z,1012.32
2023-03-01T05:09:55.113Z,1012.31
2023-03-01T05:10:34.702Z,1012.29
2023-03-01T05:11:15.224Z,1012.32
2023-03-01T05:11:55.757Z,1012.35
2023-03-01T05:12:36.282Z,1012.37
2023-03-01T05:13:16.789Z,1012.31
2023-03-01T05:13:57.306Z,1012.34
2023-03-01T05:14:37.819Z,1012.33
2023-03-01T05:15:18.345Z,1012.31
2023-03-01T05:15:58.963Z,1012.35
2023-03-01T05:16:39.404Z,1012.3
2023-03-01T05:17:19.896Z,1012.29
2023-03-01T05:18:00.531Z,1012.29
2023-03-01T05:18:41.068Z,1012.3
2023-03-01T05:19:21.507Z,1012.28
2023-03-01T05:20:02.025Z,1012.29
2023-03-01T05:20:42.545Z,1012.27
2023-03-01T05:21:23.074Z,1012.26
2023-03-01T05:22:03.578Z,1012.26
2023-03-01T05:22:44.104Z,1012.3
2023-03-01T05:23:24.632Z,1012.29
2023-03-01T05:24:05.160Z,1012.31
2023-03-01T05:24:45.714Z,1012.3
2023-03-01T05:25:26.196Z,1012.29
2023-03-01T05:27:39.772Z,1012.31
2023-03-01T05:28:20.326Z,1012.28
2023-03-01T05:29:05.172Z,1012.29
2023-03-01T05:29:45.727Z,1012.28
2023-03-01T05:31:59.947Z,1012.28
2023-03-01T05:32:44.811Z,1012.28
2023-03-01T05:33:25.987Z,1012.26
2023-03-01T05:34:11.119Z,1012.3
2023-03-01T05:36:10.506Z,1012.31
2023-03-01T05:36:51.041Z,1012.28
2023-03-01T05:37:31.569Z,1012.3
2023-03-01T05:38:12.065Z,1012.3
2023-03-01T05:38:52.601Z,1012.29
2023-03-01T05:39:33.117Z,1012.26
2023-03-01T05:40:13.673Z,1012.28
2023-03-01T05:40:54.187Z,1012.24
2023-03-01T05:41:34.699Z,1012.24
2023-03-01T05:42:15.337Z,1012.24
2023-03-01T05:42:55.838Z,1012.23
2023-03-01T05:43:36.376Z,1012.26
2023-03-01T05:44:17.565Z,1012.25
2023-03-01T05:44:58.114Z,1012.24
2023-03-01T05:45:38.712Z,1012.26
2023-03-01T05:46:19.212Z,1012.21
2023-03-01T05:46:59.692Z,1012.24
2023-03-01T05:47:40.235Z,1012.23
2023-03-01T05:48:20.720Z,1012.3
2023-03-01T05:49:01.345Z,1012.24
2023-03-01T05:49:41.858Z,1012.22
2023-03-01T05:50:22.377Z,1012.22
2023-03-01T05:51:02.924Z,1012.25
2023-03-01T05:51:43.467Z,1012.26
2023-03-01T05:52:23.973Z,1012.26
2023-03-01T05:53:04.490Z,1012.23
2023-03-01T05:53:45.011Z,1012.24
2023-03-01T05:54:25.543Z,1012.25
2023-03-01T05:55:06.079Z,1012.25
2023-03-01T05:55:46.606Z,1012.22
2023-03-01T05:56:27.131Z,1012.21
2023-03-01T05:57:07.632Z,1012.22
2023-03-01T05:57:48.194Z,1012.17
2023-03-01T05:58:28.699Z,1012.23
2023-03-01T05:59:09.218Z,1012.21
2023-03-01T06:01:07.127Z,1012.2
2023-03-01T06:01:47.642Z,1012.25
2023-03-01T06:02:28.194Z,1012.23
2023-03-01T06:03:08.719Z,1012.19
2023-03-01T06:03:49.270Z,1012.2
2023-03-01T06:04:29.793Z,1012.22
2023-03-01T06:05:10.356Z,1012.19
2023-03-01T06:05:50.938Z,1012.23
2023-03-01T06:06:31.539Z,1012.23
2023-03-01T06:07:12.421Z,1012.25
2023-03-01T06:07:53.925Z,1012.23
2023-03-01T06:08:34.448Z,1012.21
2023-03-01T06:09:14.964Z,1012.27
2023-03-01T06:09:55.485Z,1012.25
2023-03-01T06:10:36.040Z,1012.28
2023-03-01T06:11:16.528Z,1012.28
2023-03-01T06:11:57.080Z,1012.31
2023-03-01T06:12:37.594Z,1012.3
2023-03-01T06:13:18.149Z,1012.28
2023-03-01T06:13:58.689Z,1012.31
2023-03-01T06:14:39.225Z,1012.27
2023-03-01T06:15:19.737Z,1012.31
2023-03-01T06:16:00.295Z,1012.3
2023-03-01T06:16:40.774Z,1012.27
2023-03-01T06:17:21.309Z,1012.27
2023-03-01T06:18:01.819Z,1012.25
2023-03-01T06:18:42.404Z,1012.23
2023-03-01T06:19:22.871Z,1012.23
2023-03-01T06:20:03.375Z,1012.23
2023-03-01T06:20:43.896Z,1012.27
2023-03-01T06:21:24.438Z,1012.27
2023-03-01T06:22:04.992Z,1012.32
2023-03-01T06:22:45.524Z,1012.3
2023-03-01T06:23:26.843Z,1012.34
2023-03-01T06:24:07.358Z,1012.34
2023-03-01T06:24:47.911Z,1012.33
2023-03-01T06:25:28.459Z,1012.34
2023-03-01T06:26:08.986Z,1012.34
2023-03-01T06:26:49.494Z,1012.35
2023-03-01T06:27:30.009Z,1012.33
2023-03-01T06:28:10.532Z,1012.33
2023-03-01T06:28:51.044Z,1012.34
2023-03-01T06:29:31.559Z,1012.35
2023-03-01T06:30:12.095Z,1012.32
2023-03-01T06:30:52.749Z,1012.32
2023-03-01T06:31:33.166Z,1012.28
2023-03-01T06:32:13.669Z,1012.32
2023-03-01T06:32:54.180Z,1012.32
2023-03-01T06:33:34.695Z,1012.34
2023-03-01T06:34:15.247Z,1012.27
2023-03-01T06:34:55.744Z,1012.32
2023-03-01T06:35:36.283Z,1012.34
2023-03-01T06:36:16.796Z,1012.32
2023-03-01T06:36:57.322Z,1012.3
2023-03-01T06:37:38.376Z,1012.33
2023-03-01T06:38:18.894Z,1012.32
2023-03-01T06:38:59.413Z,1012.34
2023-03-01T06:39:39.934Z,1012.28
2023-03-01T06:40:20.452Z,1012.28
2023-03-01T06:41:00.964Z,1012.33
2023-03-01T06:41:41.483Z,1012.34
2023-03-01T06:44:58.218Z,1012.29
2023-03-01T06:45:38.739Z,1012.26
2023-03-01T06:46:19.326Z,1012.2
2023-03-01T06:46:59.914Z,1012.27
2023-03-01T06:47:40.303Z,1012.2
2023-03-01T06:48:20.840Z,1012.19
2023-03-01T06:49:01.379Z,1012.21
2023-03-01T06:49:42.775Z,1012.18
2023-03-01T06:50:23.354Z,1012.19
2023-03-01T06:51:03.777Z,1012.24
2023-03-01T06:51:44.297Z,1012.2
2023-03-01T06:52:24.808Z,1012.21
2023-03-01T06:53:05.333Z,1012.21
2023-03-01T06:53:45.860Z,1012.21
2023-03-01T06:54:26.422Z,1012.21
2023-03-01T06:55:06.970Z,1012.19
2023-03-01T06:55:47.485Z,1012.16
2023-03-01T06:56:28.939Z,1012.18
2023-03-01T06:57:09.336Z,1012.16
2023-03-01T06:57:49.886Z,1012.17
2023-03-01T06:58:30.413Z,1012.22
2023-03-01T06:59:10.947Z,1012.23
2023-03-01T06:59:51.605Z,1012.19
2023-03-01T07:00:32.584Z,1012.19
2023-03-01T07:01:13.075Z,1012.19
2023-03-01T07:01:53.606Z,1012.21
2023-03-01T07:02:34.831Z,1012.18
2023-03-01T07:03:15.311Z,1012.16
2023-03-01T07:03:55.835Z,1012.09
2023-03-01T07:04:36.343Z,1012.12
2023-03-01T07:05:16.933Z,1012.12
2023-03-01T07:05:57.433Z,1012.07
2023-03-01T07:06:37.944Z,1012.12
2023-03-01T07:07:18.459Z,1012.1
2023-03-01T07:07:58.994Z,1012.13
2023-03-01T07:08:39.522Z,1012.1
2023-03-01T07:09:20.067Z,1012.1
2023-03-01T07:10:00.599Z,1012.12
2023-03-01T07:10:41.127Z,1012.12
2023-03-01T07:11:21.649Z,1012.1
2023-03-01T07:12:02.173Z,1012.12
2023-03-01T07:12:42.680Z,1012.08
2023-03-01T07:13:23.279Z,1012.12
2023-03-01T07:14:03.798Z,1012.09
2023-03-01T07:14:44.398Z,1012.01
2023-03-01T07:15:24.848Z,1012.02
2023-03-01T07:16:05.416Z,1012.03
2023-03-01T07:16:45.902Z,1012.02
2023-03-01T07:17:26.443Z,1012.03
2023-03-01T07:18:06.946Z,1012.01
2023-03-01T07:18:47.470Z,1012.03
2023-03-01T07:22:41.715Z,1012.07
2023-03-01T07:23:22.219Z,1012.08
2023-03-01T07:24:02.730Z,1012.05
2023-03-01T07:24:43.255Z,1012.03
2023-03-01T07:25:23.760Z,1012.07
2023-03-01T07:26:04.284Z,1012.04
2023-03-01T07:26:44.790Z,1012.06
2023-03-01T07:27:25.307Z,1012.02
2023-03-01T07:28:05.827Z,1012.03
2023-03-01T07:28:46.343Z,1012
2023-03-01T07:29:26.859Z,1012.04
2023-03-01T07:30:07.409Z,1012.02
2023-03-01T07:30:47.930Z,1012.06
2023-03-01T07:31:28.442Z,1012.05
2023-03-01T07:32:09.069Z,1012.01
2023-03-01T07:32:49.690Z,1012.05
2023-03-01T07:33:30.025Z,1012.04
2023-03-01T07:34:10.542Z,1012.09
2023-03-01T07:34:51.065Z,1012.1
2023-03-01T07:35:31.634Z,1011.98
2023-03-01T07:36:12.096Z,1012.03
2023-03-01T07:36:52.619Z,1012
2023-03-01T07:37:33.146Z,1012.06
2023-03-01T07:38:13.704Z,1012.04
2023-03-01T07:38:54.198Z,1012.02
2023-03-01T07:39:34.719Z,1012.04
2023-03-01T07:43:28.937Z,1012.01
2023-03-01T07:44:09.450Z,1011.95
2023-03-01T07:44:49.978Z,1012.01
2023-03-01T07:45:30.516Z,1011.99
2023-03-01T07:46:11.060Z,1011.96
2023-03-01T07:48:24.020Z,1011.96
2023-03-01T07:49:04.533Z,1011.97
2023-03-01T07:49:45.052Z,1011.96
2023-03-01T07:50:25.613Z,1011.95
2023-03-01T07:51:06.142Z,1011.99
2023-03-01T07:51:46.674Z,1012.02
2023-03-01T07:52:27.193Z,1011.97
2023-03-01T07:53:07.714Z,1011.96
2023-03-01T07:53:48.256Z,1012
2023-03-01T07:54:28.779Z,1011.98
2023-03-01T07:55:09.331Z,1011.94
2023-03-01T07:55:49.874Z,1011.99
2023-03-01T07:56:30.844Z,1011.97
2023-03-01T07:57:10.910Z,1011.97
2023-03-01T07:57:52.330Z,1011.99
2023-03-01T07:58:32.831Z,1011.95
2023-03-01T07:59:13.358Z,1011.96
2023-03-01T07:59:53.900Z,1011.96
2023-03-01T08:00:34.435Z,1011.92
2023-03-01T08:01:15.748Z,1011.92
2023-03-01T08:03:28.771Z,1011.96
2023-03-01T08:04:09.477Z,1011.92
2023-03-01T08:04:49.993Z,1011.83
2023-03-01T08:05:30.573Z,1011.91
2023-03-01T08:06:11.109Z,1011.87
2023-03-01T08:08:09.022Z,1011.92
2023-03-01T08:08:49.554Z,1011.96
2023-03-01T08:09:30.107Z,1011.89
2023-03-01T08:10:10.585Z,1011.92
2023-03-01T08:10:51.111Z,1011.95
2023-03-01T08:11:32.269Z,1011.93
2023-03-01T08:12:12.190Z,1011.9
2023-03-01T08:12:52.746Z,1011.94
2023-03-01T08:13:33.295Z,1011.95
2023-03-01T08:14:13.833Z,1011.92
2023-03-01T08:14:54.340Z,1011.9
2023-03-01T08:15:34.905Z,1011.88
2023-03-01T08:16:15.485Z,1011.86
2023-03-01T08:16:55.994Z,1011.89
2023-03-01T08:17:36.483Z,1011.88
2023-03-01T08:18:17.791Z,1011.87
2023-03-01T08:18:58.314Z,1011.85
2023-03-01T08:19:38.866Z,1011.83
2023-03-01T08:20:20.030Z,1011.86
2023-03-01T08:20:59.912Z,1011.83
2023-03-01T08:21:40.458Z,1011.85
2023-03-01T08:22:20.996Z,1011.78
2023-03-01T08:23:01.527Z,1011.9
2023-03-01T08:23:42.080Z,1011.74
2023-03-01T08:24:22.646Z,1011.82
2023-03-01T08:25:03.249Z,1011.8
2023-03-01T08:25:43.734Z,1011.84
2023-03-01T08:26:24.287Z,1011.83
2023-03-01T08:27:05.641Z,1011.8
2023-03-01T08:27:46.170Z,1011.81
2023-03-01T08:28:26.697Z,1011.8
2023-03-01T08:29:07.213Z,1011.75
2023-03-01T08:29:47.768Z,1011.73
2023-03-01T08:30:28.336Z,1011.74
2023-03-01T08:31:08.852Z,1011.71
2023-03-01T08:31:49.579Z,1011.73
2023-03-01T08:32:30.004Z,1011.73
2023-03-01T08:33:10.553Z,1011.68
2023-03-01T08:35:24.800Z,1011.74
2023-03-01T08:36:05.252Z,1011.7
2023-03-01T08:36:48.355Z,1011.72
2023-03-01T08:37:31.502Z,1011.69
2023-03-01T08:38:17.357Z,1011.66
2023-03-01T08:38:57.899Z,1011.7
2023-03-01T08:39:38.492Z,1011.71
2023-03-01T08:40:19.647Z,1011.66
2023-03-01T08:41:02.573Z,1011.71
2023-03-01T08:41:48.083Z,1011.65
2023-03-01T08:42:33.840Z,1011.74
2023-03-01T08:43:16.861Z,1011.75
2023-03-01T08:44:00.170Z,1011.7
2023-03-01T08:44:43.958Z,1011.73
2023-03-01T08:45:24.257Z,1011.69
2023-03-01T08:46:09.510Z,1011.68
2023-03-01T08:46:51.635Z,1011.64
2023-03-01T08:47:32.847Z,1011.66
2023-03-01T08:48:15.848Z,1011.68
2023-03-01T08:49:03.388Z,1011.66
2023-03-01T08:49:46.352Z,1011.68
2023-03-01T08:50:29.388Z,1011.62
2023-03-01T08:51:10.785Z,1011.68
2023-03-01T08:51:54.273Z,1011.68
2023-03-01T08:52:35.275Z,1011.67
2023-03-01T08:53:19.498Z,1011.68
2023-03-01T08:55:49.925Z,1011.69
2023-03-01T08:56:29.016Z,1011.74
2023-03-01T08:57:09.251Z,1011.77
2023-03-01T08:57:49.795Z,1011.78
2023-03-01T08:58:30.331Z,1011.72
2023-03-01T08:59:10.911Z,1011.72
2023-03-01T08:59:51.471Z,1011.64
2023-03-01T09:00:31.941Z,1011.74
2023-03-01T09:01:12.453Z,1011.7
2023-03-01T09:01:53.074Z,1011.67
2023-03-01T09:03:50.991Z,1011.64
2023-03-01T09:04:31.443Z,1011.62
2023-03-01T09:05:11.954Z,1011.64
2023-03-01T09:05:52.479Z,1011.65
2023-03-01T09:06:33.874Z,1011.57
2023-03-01T09:07:14.371Z,1011.59
2023-03-01T09:07:54.938Z,1011.62
2023-03-01T09:08:35.403Z,1011.61
2023-03-01T09:09:15.950Z,1011.6
2023-03-01T09:09:57.057Z,1011.68
2023-03-01T09:10:37.643Z,1011.62
2023-03-01T09:11:18.184Z,1011.62
2023-03-01T09:11:58.705Z,1011.58
2023-03-01T09:12:39.240Z,1011.53
2023-03-01T09:13:19.733Z,1011.65
2023-03-01T09:14:00.253Z,1011.64
2023-03-01T09:14:40.771Z,1011.61
2023-03-01T09:15:21.289Z,1011.64
2023-03-01T09:16:01.808Z,1011.63
2023-03-01T09:16:42.482Z,1011.59
2023-03-01T09:17:22.908Z,1011.54
2023-03-01T09:20:39.240Z,1011.54
2023-03-01T09:21:24.979Z,1011.56
2023-03-01T09:22:00.317Z,1011.55
2023-03-01T09:22:40.860Z,1011.51
2023-03-01T09:23:21.378Z,1011.51
2023-03-01T09:24:01.892Z,1011.56
2023-03-01T09:24:42.406Z,1011.6
2023-03-01T09:25:22.932Z,1011.58
2023-03-01T09:26:03.442Z,1011.59
2023-03-01T09:26:44.069Z,1011.57
2023-03-01T09:27:24.478Z,1011.54
2023-03-01T09:28:04.997Z,1011.55